Aquadonna — A8TW9 — position and weather

sailwx.info

Track history (hours):
 
Tides and Currents Weather Stations Pressure Air Temp Water Temp Dewpoint Dewpoint Depression Visibility Wind Speed Wind Dir Waves Ship Positions

Aquadonna

Last reported at 2014-Sep-07 23:31 UTC. Time now 2014-Sep-18 13:46 UTC.
Position N 22°43' E 119°44'.
Warning: this ship's position is 10 days out of date.

Length 280 m; draft 8.3 m.

Type: Cargo ship. MMSI: 636014449.

Date/timePositionNaut miles runAvg speedWind from/ knotsBaromVisibWave heightAir tempDewpointWater temp
2014-Sep-07 23:31N 22°43' E 119°44'12213.3
2014-Sep-07 14:21N 24°38' E 120°28'1113.7
2014-Sep-07 13:33N 24°48' E 120°33'1414.2
2014-Sep-07 12:34N 25°01' E 120°39'3414.1
2014-Sep-07 10:09N 25°30' E 120°57'813.8
2014-Sep-07 09:33N 25°38' E 121°01'22813.2
2014-Sep-06 16:17N 28°58' E 123°04'1114.5
2014-Sep-06 15:33N 29°07' E 123°10'1614.0
2014-Sep-06 14:23N 29°21' E 123°20'1313.4
2014-Sep-06 13:25N 29°34' E 123°22'1212.5
2014-Sep-06 12:26N 29°46' E 123°20'1212.5
2014-Sep-06 11:30N 29°58' E 123°19'1612.8
2014-Sep-06 10:15N 30°14' E 123°19'2813.6
2014-Sep-06 08:12N 30°42' E 123°20'913.9
2014-Sep-06 07:33N 30°51' E 123°19'1514.9
2014-Sep-06 06:33N 31°06' E 123°20'  
Track history (hours):
 
Tides and Currents Weather Stations Pressure Air Temp Water Temp Dewpoint Dewpoint Depression Visibility Wind Speed Wind Dir Waves Ship Positions

Aquadonna

Last reported at 2014-Sep-07 23:31 UTC. Time now 2014-Sep-18 13:46 UTC.
Position N 22°43' E 119°44'.
Warning: this ship's position is 10 days out of date.

Length 280 m; draft 8.3 m.

Type: Cargo ship. MMSI: 636014449.

Date/timePositionNaut miles runAvg speedWind from/ knotsBaromVisibWave heightAir tempDewpointWater temp
2014-Sep-07 23:31N 22°43' E 119°44'12213.3
2014-Sep-07 14:21N 24°38' E 120°28'1113.7
2014-Sep-07 13:33N 24°48' E 120°33'1414.2
2014-Sep-07 12:34N 25°01' E 120°39'3414.1
2014-Sep-07 10:09N 25°30' E 120°57'813.8
2014-Sep-07 09:33N 25°38' E 121°01'22813.2
2014-Sep-06 16:17N 28°58' E 123°04'1114.5
2014-Sep-06 15:33N 29°07' E 123°10'1614.0
2014-Sep-06 14:23N 29°21' E 123°20'1313.4
2014-Sep-06 13:25N 29°34' E 123°22'1212.5
2014-Sep-06 12:26N 29°46' E 123°20'1212.5
2014-Sep-06 11:30N 29°58' E 123°19'1612.8
2014-Sep-06 10:15N 30°14' E 123°19'2813.6
2014-Sep-06 08:12N 30°42' E 123°20'913.9
2014-Sep-06 07:33N 30°51' E 123°19'1514.9
2014-Sep-06 06:33N 31°06' E 123°20'  

Dump ship's entire track history